createdAt,value
2023-05-01T00:01:30.667Z,58.51
2023-05-01T00:03:57.388Z,58.32
2023-05-01T00:06:24.139Z,58.46
2023-05-01T00:08:50.677Z,58.74
2023-05-01T00:11:17.268Z,59.05
2023-05-01T00:13:43.875Z,58.55
2023-05-01T00:16:12.039Z,58.19
2023-05-01T00:18:38.742Z,58.52
2023-05-01T00:21:05.343Z,58.61
2023-05-01T00:23:31.840Z,58.55
2023-05-01T00:25:58.382Z,58.46
2023-05-01T00:28:24.989Z,58.58
2023-05-01T00:30:51.905Z,58.53
2023-05-01T00:33:18.573Z,58.65
2023-05-01T00:35:45.724Z,58.41
2023-05-01T00:38:12.566Z,58.29
2023-05-01T00:40:45.751Z,58.47
2023-05-01T00:43:13.886Z,58.66
2023-05-01T00:45:43.709Z,58.68
2023-05-01T00:48:10.979Z,58.81
2023-05-01T00:50:38.310Z,58.97
2023-05-01T00:53:05.150Z,58.86
2023-05-01T00:55:33.563Z,58.74
2023-05-01T00:58:01.815Z,58.96
2023-05-01T01:00:29.504Z,58.93
2023-05-01T01:02:56.261Z,59.02
2023-05-01T01:05:24.890Z,58.87
2023-05-01T01:08:19.489Z,59.04
2023-05-01T01:11:13.816Z,59.00
2023-05-01T01:13:47.563Z,58.78
2023-05-01T01:16:37.225Z,58.92
2023-05-01T01:19:19.018Z,58.67
2023-05-01T01:21:47.621Z,58.87
2023-05-01T01:24:32.277Z,59.01
2023-05-01T01:27:07.835Z,58.89
2023-05-01T01:30:08.137Z,59.02
2023-05-01T01:32:43.600Z,59.41
2023-05-01T01:35:18.547Z,59.27
2023-05-01T01:38:05.024Z,59.29
2023-05-01T01:40:41.772Z,59.65
2023-05-01T01:43:11.086Z,59.73
2023-05-01T01:45:42.281Z,59.64
2023-05-01T01:48:15.447Z,60.20
2023-05-01T01:50:43.255Z,60.13
2023-05-01T01:53:12.114Z,60.08
2023-05-01T01:55:40.242Z,60.27
2023-05-01T01:58:06.967Z,60.32
2023-05-01T02:00:34.991Z,60.58
2023-05-01T02:03:02.358Z,60.58
2023-05-01T02:05:29.391Z,60.84
2023-05-01T02:07:56.710Z,61.08
2023-05-01T02:10:23.296Z,61.07
2023-05-01T02:12:51.990Z,60.98
2023-05-01T02:15:19.391Z,61.46
2023-05-01T02:17:46.420Z,61.61
2023-05-01T02:20:13.780Z,61.76
2023-05-01T02:22:41.121Z,62.10
2023-05-01T02:25:10.745Z,62.83
2023-05-01T02:27:40.936Z,63.36
2023-05-01T02:30:08.449Z,64.16
2023-05-01T02:32:35.164Z,64.38
2023-05-01T02:35:01.814Z,64.99
2023-05-01T02:37:29.396Z,65.09
2023-05-01T02:39:56.143Z,65.34
2023-05-01T02:42:24.436Z,65.85
2023-05-01T02:44:55.374Z,66.31
2023-05-01T02:47:23.461Z,66.76
2023-05-01T02:49:51.410Z,66.93
2023-05-01T02:52:19.517Z,67.11
2023-05-01T02:54:46.537Z,67.29
2023-05-01T02:57:13.102Z,67.38
2023-05-01T02:59:41.083Z,67.63
2023-05-01T03:02:07.598Z,67.95
2023-05-01T03:04:34.175Z,67.70
2023-05-01T03:07:00.832Z,67.94
2023-05-01T03:09:27.469Z,67.77
2023-05-01T03:11:53.992Z,67.97
2023-05-01T03:14:20.520Z,68.12
2023-05-01T03:16:47.110Z,68.09
2023-05-01T03:19:13.633Z,68.16
2023-05-01T03:21:40.150Z,68.23
2023-05-01T03:24:07.146Z,68.28
2023-05-01T03:26:33.767Z,68.37
2023-05-01T03:29:00.279Z,68.54
2023-05-01T03:31:26.848Z,68.42
2023-05-01T03:33:53.524Z,68.47
2023-05-01T03:36:20.077Z,68.91
2023-05-01T03:38:47.406Z,68.91
2023-05-01T03:41:14.144Z,68.44
2023-05-01T03:43:40.747Z,68.11
2023-05-01T03:46:07.327Z,67.02
2023-05-01T03:48:33.853Z,66.26
2023-05-01T03:51:00.343Z,65.53
2023-05-01T03:53:26.978Z,64.66
2023-05-01T03:55:53.475Z,64.55
2023-05-01T03:58:22.120Z,64.33
2023-05-01T04:00:48.898Z,64.10
2023-05-01T04:03:15.517Z,64.05
2023-05-01T04:05:42.113Z,63.86
2023-05-01T04:08:08.961Z,64.16
2023-05-01T04:10:36.029Z,63.96
2023-05-01T04:13:02.628Z,64.30
2023-05-01T04:15:29.216Z,64.29
2023-05-01T04:17:56.904Z,64.57
2023-05-01T04:20:23.488Z,64.39
2023-05-01T04:22:50.055Z,64.57
2023-05-01T04:25:16.865Z,64.12
2023-05-01T04:27:43.347Z,64.37
2023-05-01T04:30:10.669Z,64.55
2023-05-01T04:32:37.373Z,64.75
2023-05-01T04:35:04.847Z,64.64
2023-05-01T04:37:31.416Z,64.33
2023-05-01T04:39:58.067Z,64.28
2023-05-01T04:42:30.871Z,64.35
2023-05-01T04:44:57.469Z,64.33
2023-05-01T04:47:24.115Z,64.38
2023-05-01T04:49:50.714Z,64.12
2023-05-01T04:52:17.382Z,64.15
2023-05-01T04:54:43.937Z,64.19
2023-05-01T04:57:10.558Z,64.20
2023-05-01T04:59:37.096Z,64.19
2023-05-01T05:02:03.961Z,63.95
2023-05-01T05:04:30.569Z,63.91
2023-05-01T05:06:57.082Z,64.15
2023-05-01T05:09:23.651Z,64.53
2023-05-01T05:11:50.211Z,64.50
2023-05-01T05:14:16.793Z,64.23
2023-05-01T05:16:43.321Z,64.70
2023-05-01T05:19:09.833Z,65.01
2023-05-01T05:21:37.347Z,65.32
2023-05-01T05:24:03.989Z,65.87
2023-05-01T05:26:30.496Z,66.23
2023-05-01T05:28:57.123Z,66.17
2023-05-01T05:31:23.751Z,65.96
2023-05-01T05:33:50.276Z,66.17
2023-05-01T05:36:16.846Z,66.16
2023-05-01T05:38:43.346Z,65.47
2023-05-01T05:41:09.857Z,65.23
2023-05-01T05:43:37.249Z,64.68
2023-05-01T05:46:03.923Z,65.14
2023-05-01T05:48:30.520Z,65.62
2023-05-01T05:50:57.550Z,65.43
2023-05-01T05:53:25.985Z,65.45
2023-05-01T05:55:52.991Z,65.37
2023-05-01T05:58:23.289Z,65.27
2023-05-01T06:00:50.169Z,65.26
2023-05-01T06:03:17.275Z,65.27
2023-05-01T06:05:44.005Z,65.15
2023-05-01T06:08:11.157Z,65.72
2023-05-01T06:10:39.519Z,65.40
2023-05-01T06:13:13.408Z,65.26
2023-05-01T06:15:41.689Z,65.25
2023-05-01T06:18:08.559Z,65.56
2023-05-01T06:20:35.199Z,65.41
2023-05-01T06:23:01.735Z,65.46
2023-05-01T06:25:28.291Z,65.28
2023-05-01T06:27:54.966Z,65.44
2023-05-01T06:30:21.938Z,64.84
2023-05-01T06:32:48.996Z,64.72
2023-05-01T06:35:15.648Z,64.77
2023-05-01T06:37:42.183Z,65.66
2023-05-01T06:40:09.685Z,66.08
2023-05-01T06:42:37.263Z,65.93
2023-05-01T06:45:04.021Z,66.31
2023-05-01T06:47:30.867Z,66.79
2023-05-01T06:49:57.703Z,67.12
2023-05-01T06:52:24.914Z,65.84
2023-05-01T06:54:51.431Z,65.24
2023-05-01T06:57:17.935Z,64.64
2023-05-01T06:59:44.473Z,64.84
2023-05-01T07:02:11.465Z,65.10
2023-05-01T07:04:38.016Z,65.21
2023-05-01T07:07:04.542Z,65.00
2023-05-01T07:09:31.465Z,64.48
2023-05-01T07:11:58.760Z,64.65
2023-05-01T07:14:25.298Z,63.56
2023-05-01T07:16:51.910Z,63.16
2023-05-01T07:19:18.730Z,63.17
2023-05-01T07:21:45.508Z,63.16
2023-05-01T07:24:12.599Z,62.43
2023-05-01T07:26:39.510Z,62.16
2023-05-01T07:29:06.121Z,61.53
2023-05-01T07:31:32.677Z,61.37
2023-05-01T07:33:59.178Z,61.21
2023-05-01T07:36:25.708Z,61.63
2023-05-01T07:38:52.399Z,62.43
2023-05-01T07:41:18.949Z,62.23
2023-05-01T07:43:45.599Z,62.23
2023-05-01T07:46:12.822Z,62.76
2023-05-01T07:48:39.962Z,62.88
2023-05-01T07:51:06.625Z,62.88
2023-05-01T07:53:33.284Z,62.14
2023-05-01T07:56:09.879Z,61.57
2023-05-01T07:58:37.190Z,61.49
2023-05-01T08:01:03.832Z,61.33
2023-05-01T08:03:31.167Z,61.50
2023-05-01T08:05:58.301Z,61.23
2023-05-01T08:08:24.854Z,60.89
2023-05-01T08:10:51.955Z,62.85
2023-05-01T08:13:18.963Z,63.63
2023-05-01T08:15:48.956Z,65.31
2023-05-01T08:18:20.258Z,66.58
2023-05-01T08:20:48.309Z,66.95
2023-05-01T08:23:18.638Z,67.64
2023-05-01T08:25:51.051Z,67.86
2023-05-01T08:28:18.622Z,68.71
2023-05-01T08:30:45.997Z,69.09
2023-05-01T08:33:12.749Z,68.92
2023-05-01T08:35:39.336Z,69.02
2023-05-01T08:38:06.281Z,69.08
2023-05-01T08:40:37.364Z,68.93
2023-05-01T08:43:04.420Z,68.14
2023-05-01T08:45:36.037Z,68.84
2023-05-01T08:48:06.951Z,68.50
2023-05-01T08:50:39.903Z,67.49
2023-05-01T08:53:07.068Z,67.69
2023-05-01T08:55:35.308Z,67.54
2023-05-01T08:58:02.793Z,67.38
2023-05-01T09:00:29.919Z,67.96
2023-05-01T09:02:58.963Z,69.32
2023-05-01T09:05:25.570Z,70.07
2023-05-01T09:07:52.212Z,70.79
2023-05-01T09:10:19.154Z,72.24
2023-05-01T09:12:49.597Z,73.23
2023-05-01T09:15:16.163Z,73.76
2023-05-01T09:17:42.947Z,74.92
2023-05-01T09:20:10.527Z,76.01
2023-05-01T09:22:37.327Z,77.67
2023-05-01T09:25:04.326Z,79.20
2023-05-01T09:27:35.769Z,79.70
2023-05-01T09:30:03.077Z,79.83
2023-05-01T09:32:29.772Z,80.38
2023-05-01T09:35:09.625Z,81.35
2023-05-01T09:37:36.617Z,81.43
2023-05-01T09:40:09.991Z,81.68
2023-05-01T09:42:38.694Z,83.08
2023-05-01T09:45:11.586Z,83.62
2023-05-01T09:47:38.158Z,83.66
2023-05-01T09:50:05.441Z,84.00
2023-05-01T09:52:33.827Z,83.68
2023-05-01T09:55:16.387Z,83.50
2023-05-01T09:57:44.335Z,83.80
2023-05-01T10:00:15.561Z,83.17
2023-05-01T10:02:44.287Z,83.37
2023-05-01T10:05:11.756Z,82.96
2023-05-01T10:07:39.270Z,82.28
2023-05-01T10:10:19.574Z,81.90
2023-05-01T10:12:46.560Z,82.74
2023-05-01T10:15:24.736Z,82.82
2023-05-01T10:17:52.593Z,80.90
2023-05-01T10:20:19.771Z,80.43
2023-05-01T10:22:46.677Z,79.98
2023-05-01T10:25:14.258Z,79.51
2023-05-01T10:27:41.461Z,78.41
2023-05-01T10:30:10.032Z,75.90
2023-05-01T10:32:38.214Z,76.99
2023-05-01T10:35:08.923Z,75.62
2023-05-01T10:37:48.510Z,76.27
2023-05-01T10:40:40.060Z,74.59
2023-05-01T10:43:18.640Z,74.58
2023-05-01T10:45:46.883Z,73.50
2023-05-01T10:48:39.429Z,72.54
2023-05-01T10:51:15.555Z,72.25
2023-05-01T10:53:42.948Z,70.76
2023-05-01T10:56:21.946Z,69.28
2023-05-01T10:58:55.946Z,68.47
2023-05-01T11:01:49.679Z,68.69
2023-05-01T11:04:19.142Z,66.37
2023-05-01T11:07:05.384Z,66.26
2023-05-01T11:09:55.627Z,64.03
2023-05-01T11:12:47.319Z,63.83
2023-05-01T11:15:34.300Z,61.61
2023-05-01T11:18:06.086Z,62.08
2023-05-01T11:20:35.821Z,61.34
2023-05-01T11:23:02.384Z,60.39
2023-05-01T11:25:33.736Z,61.02
2023-05-01T11:28:02.197Z,60.75
2023-05-01T11:30:39.093Z,61.95
2023-05-01T11:33:07.117Z,60.57
2023-05-01T11:35:36.409Z,58.99
2023-05-01T11:38:03.049Z,58.09
2023-05-01T11:40:34.395Z,59.11
2023-05-01T11:43:05.937Z,60.90
2023-05-01T11:45:34.093Z,58.80
2023-05-01T11:48:04.589Z,57.47
2023-05-01T11:50:37.481Z,57.91
2023-05-01T11:53:05.345Z,55.30
2023-05-01T11:55:33.158Z,54.26
2023-05-01T11:57:59.549Z,53.63
2023-05-01T12:00:44.219Z,52.38
2023-05-01T12:03:14.772Z,52.44
2023-05-01T12:05:43.184Z,50.93
2023-05-01T12:08:09.887Z,50.87
2023-05-01T12:10:37.302Z,51.55
2023-05-01T12:13:04.514Z,53.42
2023-05-01T12:15:33.026Z,54.19
2023-05-01T12:17:59.571Z,53.98
2023-05-01T12:20:52.197Z,51.68
2023-05-01T12:23:29.638Z,52.41
2023-05-01T12:25:56.856Z,53.52
2023-05-01T12:28:23.485Z,52.85
2023-05-01T12:30:50.282Z,53.14
2023-05-01T12:33:21.235Z,52.70
2023-05-01T12:35:50.803Z,51.41
2023-05-01T12:38:18.960Z,49.58
2023-05-01T12:40:59.619Z,48.45
2023-05-01T12:43:32.745Z,47.36
2023-05-01T12:45:59.662Z,46.65
2023-05-01T12:48:26.323Z,47.08
2023-05-01T12:50:56.180Z,47.34
2023-05-01T12:53:27.176Z,49.15
2023-05-01T12:55:58.195Z,49.13
2023-05-01T12:58:35.378Z,50.05
2023-05-01T13:01:01.965Z,50.32
2023-05-01T13:03:30.025Z,50.59
2023-05-01T13:06:02.136Z,51.14
2023-05-01T13:08:33.255Z,51.77
2023-05-01T13:11:02.931Z,51.77
2023-05-01T13:13:33.490Z,52.85
2023-05-01T13:16:13.141Z,53.82
2023-05-01T13:18:51.206Z,55.16
2023-05-01T13:21:21.497Z,54.64
2023-05-01T13:23:55.531Z,53.88
2023-05-01T13:26:32.903Z,54.11
2023-05-01T13:29:01.671Z,53.73
2023-05-01T13:31:28.334Z,53.01
2023-05-01T13:33:56.198Z,51.89
2023-05-01T13:36:26.632Z,51.66
2023-05-01T13:38:56.254Z,51.33
2023-05-01T13:41:25.645Z,50.97
2023-05-01T13:43:53.750Z,49.68
2023-05-01T13:46:23.963Z,49.62
2023-05-01T13:48:50.862Z,46.87
2023-05-01T13:51:23.261Z,45.30
2023-05-01T13:53:50.300Z,44.59
2023-05-01T13:56:16.935Z,44.29
2023-05-01T13:58:43.545Z,42.88
2023-05-01T14:01:16.304Z,43.04
2023-05-01T14:03:43.479Z,43.36
2023-05-01T14:06:14.789Z,42.48
2023-05-01T14:08:43.220Z,42.26
2023-05-01T14:11:11.557Z,42.50
2023-05-01T14:13:42.321Z,42.40
2023-05-01T14:16:13.360Z,41.73
2023-05-01T14:18:47.348Z,42.57
2023-05-01T14:21:18.560Z,42.13
2023-05-01T14:23:45.371Z,41.92
2023-05-01T14:26:17.430Z,41.53
2023-05-01T14:28:45.152Z,41.58
2023-05-01T14:31:15.309Z,41.20
2023-05-01T14:33:43.513Z,41.26
2023-05-01T14:36:10.355Z,41.31
2023-05-01T14:38:39.267Z,41.23
2023-05-01T14:41:06.065Z,42.17
2023-05-01T14:43:33.869Z,43.04
2023-05-01T14:46:00.405Z,41.41
2023-05-01T14:48:33.648Z,42.12
2023-05-01T14:51:00.430Z,43.20
2023-05-01T14:53:32.041Z,43.44
2023-05-01T14:55:58.563Z,43.56
2023-05-01T14:58:25.219Z,46.46
2023-05-01T15:00:52.053Z,43.91
2023-05-01T15:03:18.778Z,43.68
2023-05-01T15:05:46.233Z,45.88
2023-05-01T15:08:12.867Z,44.75
2023-05-01T15:10:39.351Z,43.89
2023-05-01T15:13:06.663Z,44.33
2023-05-01T15:15:33.278Z,44.92
2023-05-01T15:17:59.891Z,45.95
2023-05-01T15:20:26.502Z,45.58
2023-05-01T15:22:53.248Z,46.17
2023-05-01T15:25:19.773Z,45.97
2023-05-01T15:27:46.382Z,45.15
2023-05-01T15:30:14.348Z,45.23
2023-05-01T15:32:41.151Z,46.22
2023-05-01T15:35:09.238Z,44.72
2023-05-01T15:40:04.293Z,43.47
2023-05-01T15:42:31.199Z,44.73
2023-05-01T15:44:58.168Z,44.69
2023-05-01T15:47:25.092Z,44.57
2023-05-01T15:49:51.780Z,45.67
2023-05-01T15:52:18.326Z,46.35
2023-05-01T15:54:47.312Z,45.81
2023-05-01T15:57:14.735Z,43.33
2023-05-01T15:59:41.409Z,43.47
2023-05-01T16:02:10.472Z,43.06
2023-05-01T16:04:38.820Z,43.20
2023-05-01T16:07:06.222Z,44.97
2023-05-01T16:09:32.907Z,44.86
2023-05-01T16:12:00.223Z,45.55
2023-05-01T16:14:26.768Z,45.06
2023-05-01T16:16:53.455Z,43.67
2023-05-01T16:19:20.137Z,44.38
2023-05-01T16:21:46.732Z,43.54
2023-05-01T16:24:13.749Z,42.88
2023-05-01T16:26:40.965Z,44.10
2023-05-01T16:29:07.835Z,42.95
2023-05-01T16:31:44.734Z,45.07
2023-05-01T16:34:11.999Z,43.59
2023-05-01T16:36:42.591Z,42.58
2023-05-01T16:39:20.854Z,41.10
2023-05-01T16:41:49.495Z,42.63
2023-05-01T16:44:17.449Z,42.68
2023-05-01T16:46:49.810Z,44.91
2023-05-01T16:49:17.502Z,46.72
2023-05-01T16:51:43.985Z,45.49
2023-05-01T16:54:10.867Z,44.66
2023-05-01T16:56:38.203Z,45.79
2023-05-01T16:59:04.869Z,45.15
2023-05-01T17:01:31.414Z,46.24
2023-05-01T17:03:58.493Z,46.02
2023-05-01T17:06:25.244Z,46.34
2023-05-01T17:08:51.829Z,48.32
2023-05-01T17:11:18.985Z,50.28
2023-05-01T17:13:45.658Z,49.26
2023-05-01T17:16:12.600Z,48.88
2023-05-01T17:18:39.188Z,50.17
2023-05-01T17:21:06.710Z,49.53
2023-05-01T17:23:33.228Z,52.30
2023-05-01T17:25:59.826Z,52.76
2023-05-01T17:28:26.462Z,52.81
2023-05-01T17:30:53.040Z,52.70
2023-05-01T17:33:19.610Z,55.30
2023-05-01T17:35:46.125Z,57.52
2023-05-01T17:38:12.689Z,57.89
2023-05-01T17:40:39.347Z,58.61
2023-05-01T17:43:05.942Z,58.86
2023-05-01T17:45:32.484Z,60.04
2023-05-01T17:47:59.100Z,60.36
2023-05-01T17:50:25.730Z,62.25
2023-05-01T17:52:52.597Z,62.34
2023-05-01T17:55:19.122Z,63.75
2023-05-01T17:57:46.059Z,64.03
2023-05-01T18:00:13.211Z,65.10
2023-05-01T18:02:40.005Z,66.52
2023-05-01T18:05:07.199Z,66.90
2023-05-01T18:07:33.787Z,67.76
2023-05-01T18:10:00.883Z,68.90
2023-05-01T18:12:27.953Z,69.80
2023-05-01T18:14:54.513Z,70.74
2023-05-01T18:17:22.184Z,70.83
2023-05-01T18:19:51.581Z,71.46
2023-05-01T18:22:18.264Z,71.45
2023-05-01T18:24:44.853Z,72.44
2023-05-01T18:27:12.212Z,73.39
2023-05-01T18:29:38.715Z,73.31
2023-05-01T18:32:05.628Z,75.27
2023-05-01T18:34:32.167Z,76.15
2023-05-01T18:36:58.676Z,76.38
2023-05-01T18:39:25.251Z,77.07
2023-05-01T18:41:51.774Z,77.01
2023-05-01T18:44:18.456Z,77.91
2023-05-01T18:46:45.141Z,78.69
2023-05-01T18:49:11.883Z,79.00
2023-05-01T18:51:38.811Z,78.93
2023-05-01T18:54:07.585Z,79.33
2023-05-01T18:56:34.423Z,79.46
2023-05-01T18:59:01.147Z,79.79
2023-05-01T19:01:27.837Z,79.49
2023-05-01T19:03:58.876Z,79.97
2023-05-01T19:06:28.890Z,80.62
2023-05-01T19:08:55.516Z,80.55
2023-05-01T19:11:22.140Z,80.59
2023-05-01T19:13:48.995Z,80.13
2023-05-01T19:16:15.598Z,80.41
2023-05-01T19:18:42.195Z,80.42
2023-05-01T19:21:09.022Z,81.09
2023-05-01T19:23:37.404Z,80.87
2023-05-01T19:26:06.157Z,81.24
2023-05-01T19:28:32.716Z,81.50
2023-05-01T19:30:59.372Z,81.75
2023-05-01T19:33:25.878Z,81.31
2023-05-01T19:35:52.465Z,81.49
2023-05-01T19:38:19.015Z,82.02
2023-05-01T19:40:45.661Z,82.05
2023-05-01T19:43:13.383Z,82.50
2023-05-01T19:45:40.126Z,82.19
2023-05-01T19:48:06.990Z,81.85
2023-05-01T19:50:33.592Z,81.71
2023-05-01T19:53:00.488Z,81.61
2023-05-01T19:55:27.214Z,81.49
2023-05-01T19:57:53.762Z,81.63
2023-05-01T20:00:20.492Z,81.22
2023-05-01T20:02:47.644Z,82.31
2023-05-01T20:05:14.593Z,82.13
2023-05-01T20:07:41.293Z,81.94
2023-05-01T20:10:09.875Z,81.84
2023-05-01T20:12:37.097Z,82.37
2023-05-01T20:15:04.438Z,81.52
2023-05-01T20:17:31.134Z,82.17
2023-05-01T20:19:58.057Z,82.16
2023-05-01T20:22:24.814Z,82.88
2023-05-01T20:24:51.374Z,83.05
2023-05-01T20:27:17.882Z,83.14
2023-05-01T20:29:44.496Z,82.71
2023-05-01T20:32:11.506Z,83.16
2023-05-01T20:34:38.071Z,83.43
2023-05-01T20:37:04.623Z,83.02
2023-05-01T20:39:31.187Z,83.46
2023-05-01T20:41:59.287Z,83.71
2023-05-01T20:44:25.863Z,83.22
2023-05-01T20:46:52.714Z,82.58
2023-05-01T20:49:20.524Z,82.46
2023-05-01T20:51:47.517Z,82.38
2023-05-01T20:54:14.411Z,82.30
2023-05-01T20:56:41.064Z,82.34
2023-05-01T20:59:07.676Z,82.22
2023-05-01T21:01:34.322Z,82.05
2023-05-01T21:04:01.065Z,82.13
2023-05-01T21:06:31.579Z,82.43
2023-05-01T21:08:59.602Z,83.66
2023-05-01T21:11:26.591Z,84.08
2023-05-01T21:13:53.137Z,84.34
2023-05-01T21:16:20.021Z,84.52
2023-05-01T21:18:46.719Z,83.86
2023-05-01T21:21:14.913Z,83.85
2023-05-01T21:23:47.061Z,84.51
2023-05-01T21:26:14.684Z,84.72
2023-05-01T21:28:41.393Z,85.06
2023-05-01T21:31:11.213Z,84.91
2023-05-01T21:33:39.484Z,84.33
2023-05-01T21:36:06.059Z,83.85
2023-05-01T21:38:34.831Z,83.72
2023-05-01T21:41:01.333Z,83.21
2023-05-01T21:43:27.927Z,83.04
2023-05-01T21:45:54.468Z,83.18
2023-05-01T21:48:21.052Z,82.63
2023-05-01T21:50:50.531Z,83.00
2023-05-01T21:53:17.136Z,83.03
2023-05-01T21:55:46.681Z,83.29
2023-05-01T21:58:13.978Z,83.09
2023-05-01T22:00:43.378Z,83.64
2023-05-01T22:03:10.559Z,83.45
2023-05-01T22:05:40.943Z,83.61
2023-05-01T22:08:07.639Z,83.36
2023-05-01T22:10:34.303Z,83.93
2023-05-01T22:13:00.875Z,84.59
2023-05-01T22:15:27.436Z,85.25
2023-05-01T22:17:53.989Z,85.64
2023-05-01T22:20:20.618Z,85.75
2023-05-01T22:22:47.346Z,85.88
2023-05-01T22:25:14.182Z,85.57
2023-05-01T22:27:40.837Z,86.45
2023-05-01T22:30:07.895Z,86.92
2023-05-01T22:32:34.510Z,86.80
2023-05-01T22:35:01.294Z,87.42
2023-05-01T22:37:27.813Z,87.74
2023-05-01T22:39:54.320Z,87.96
2023-05-01T22:42:21.267Z,87.91
2023-05-01T22:44:48.069Z,88.16
2023-05-01T22:47:14.578Z,87.97
2023-05-01T22:49:41.574Z,88.65
2023-05-01T22:52:08.049Z,88.27
2023-05-01T22:54:34.737Z,88.25
2023-05-01T22:57:01.301Z,88.82
2023-05-01T22:59:27.805Z,88.74
2023-05-01T23:01:54.834Z,89.60
2023-05-01T23:04:21.633Z,89.62
2023-05-01T23:06:48.344Z,89.58
2023-05-01T23:09:15.679Z,89.73
2023-05-01T23:11:42.281Z,90.31
2023-05-01T23:14:08.822Z,89.89
2023-05-01T23:16:41.688Z,90.04
2023-05-01T23:19:18.422Z,90.31
2023-05-01T23:21:45.451Z,89.89
2023-05-01T23:24:14.756Z,90.31
2023-05-01T23:26:41.696Z,89.87
2023-05-01T23:29:08.160Z,90.60
2023-05-01T23:31:35.040Z,90.19
2023-05-01T23:34:04.631Z,90.56
2023-05-01T23:36:31.566Z,90.14
2023-05-01T23:38:58.139Z,90.18
2023-05-01T23:41:25.055Z,90.53
2023-05-01T23:43:51.756Z,90.39
2023-05-01T23:46:18.385Z,91.02
2023-05-01T23:48:44.950Z,90.87
2023-05-01T23:51:11.485Z,90.43
2023-05-01T23:53:38.122Z,90.23
2023-05-01T23:56:04.800Z,90.25
2023-05-01T23:58:31.722Z,90.61
